sensor_id;sensor_type;location;lat;lon;timestamp;pressure;altitude;pressure_sealevel;temperature;humidity
11114;BME280;5610;52.154;9.198;2023-02-16T00:00:48;101606.31;;;3.05;100.00
11114;BME280;5610;52.154;9.198;2023-02-16T00:03:33;101612.50;;;3.04;100.00
11114;BME280;5610;52.154;9.198;2023-02-16T00:06:20;101602.91;;;2.98;100.00
11114;BME280;5610;52.154;9.198;2023-02-16T00:09:05;101593.28;;;2.97;100.00
11114;BME280;5610;52.154;9.198;2023-02-16T00:11:51;101603.84;;;2.94;100.00
11114;BME280;5610;52.154;9.198;2023-02-16T00:14:54;101612.72;;;2.87;100.00
11114;BME280;5610;52.154;9.198;2023-02-16T00:17:40;101602.34;;;2.78;100.00
11114;BME280;5610;52.154;9.198;2023-02-16T00:20:25;101606.75;;;2.74;100.00
11114;BME280;5610;52.154;9.198;2023-02-16T00:23:14;101612.03;;;2.76;100.00
11114;BME280;5610;52.154;9.198;2023-02-16T00:25:59;101600.63;;;2.75;100.00
11114;BME280;5610;52.154;9.198;2023-02-16T00:28:45;101603.31;;;2.71;100.00
11114;BME280;5610;52.154;9.198;2023-02-16T00:31:32;101598.84;;;2.74;100.00
11114;BME280;5610;52.154;9.198;2023-02-16T00:34:30;101601.50;;;2.73;100.00
11114;BME280;5610;52.154;9.198;2023-02-16T00:37:16;101599.81;;;2.70;100.00
11114;BME280;5610;52.154;9.198;2023-02-16T00:40:04;101611.19;;;2.72;100.00
11114;BME280;5610;52.154;9.198;2023-02-16T00:42:49;101595.31;;;2.79;100.00
11114;BME280;5610;52.154;9.198;2023-02-16T00:45:36;101596.03;;;2.88;100.00
11114;BME280;5610;52.154;9.198;2023-02-16T00:48:22;101594.28;;;2.87;100.00
11114;BME280;5610;52.154;9.198;2023-02-16T00:51:11;101589.91;;;2.89;100.00
11114;BME280;5610;52.154;9.198;2023-02-16T00:53:56;101586.38;;;2.90;100.00
11114;BME280;5610;52.154;9.198;2023-02-16T00:56:43;101586.38;;;2.90;100.00
11114;BME280;5610;52.154;9.198;2023-02-16T00:59:30;101587.19;;;2.94;100.00
11114;BME280;5610;52.154;9.198;2023-02-16T01:02:15;101585.38;;;2.97;100.00
11114;BME280;5610;52.154;9.198;2023-02-16T01:05:01;101575.69;;;2.99;100.00
11114;BME280;5610;52.154;9.198;2023-02-16T01:07:48;101573.94;;;3.00;100.00
11114;BME280;5610;52.154;9.198;2023-02-16T01:10:51;101578.38;;;2.95;100.00
11114;BME280;5610;52.154;9.198;2023-02-16T01:13:55;101574.06;;;2.91;100.00
11114;BME280;5610;52.154;9.198;2023-02-16T01:16:41;101577.72;;;2.82;100.00
11114;BME280;5610;52.154;9.198;2023-02-16T01:19:27;101574.22;;;2.80;100.00
11114;BME280;5610;52.154;9.198;2023-02-16T01:22:12;101579.56;;;2.74;100.00
11114;BME280;5610;52.154;9.198;2023-02-16T01:24:57;101577.91;;;2.68;100.00
11114;BME280;5610;52.154;9.198;2023-02-16T01:27:43;101566.53;;;2.66;100.00
11114;BME280;5610;52.154;9.198;2023-02-16T01:30:32;101562.25;;;2.61;100.00
11114;BME280;5610;52.154;9.198;2023-02-16T01:33:17;101562.31;;;2.55;100.00
11114;BME280;5610;52.154;9.198;2023-02-16T01:36:03;101563.19;;;2.54;100.00
11114;BME280;5610;52.154;9.198;2023-02-16T01:38:49;101570.25;;;2.50;100.00
11114;BME280;5610;52.154;9.198;2023-02-16T01:41:44;101557.16;;;2.47;100.00
11114;BME280;5610;52.154;9.198;2023-02-16T01:44:33;101557.25;;;2.41;100.00
11114;BME280;5610;52.154;9.198;2023-02-16T01:47:31;101549.34;;;2.41;100.00
11114;BME280;5610;52.154;9.198;2023-02-16T01:50:20;101543.25;;;2.37;100.00
11114;BME280;5610;52.154;9.198;2023-02-16T01:53:13;101555.41;;;2.47;100.00
11114;BME280;5610;52.154;9.198;2023-02-16T01:56:03;101546.63;;;2.45;100.00
11114;BME280;5610;52.154;9.198;2023-02-16T01:58:51;101543.28;;;2.36;100.00
11114;BME280;5610;52.154;9.198;2023-02-16T02:01:42;101548.63;;;2.28;100.00
11114;BME280;5610;52.154;9.198;2023-02-16T02:04:34;101548.69;;;2.24;100.00
11114;BME280;5610;52.154;9.198;2023-02-16T02:07:43;101547.75;;;2.29;100.00
11114;BME280;5610;52.154;9.198;2023-02-16T02:10:34;101545.13;;;2.29;100.00
11114;BME280;5610;52.154;9.198;2023-02-16T02:13:27;101553.06;;;2.26;100.00
11114;BME280;5610;52.154;9.198;2023-02-16T02:16:16;101560.09;;;2.23;100.00
11114;BME280;5610;52.154;9.198;2023-02-16T02:19:03;101559.25;;;2.20;100.00
11114;BME280;5610;52.154;9.198;2023-02-16T02:22:06;101555.81;;;2.15;100.00
11114;BME280;5610;52.154;9.198;2023-02-16T02:25:30;101552.41;;;2.07;100.00
11114;BME280;5610;52.154;9.198;2023-02-16T02:28:25;101529.72;;;1.97;100.00
11114;BME280;5610;52.154;9.198;2023-02-16T02:31:20;101536.75;;;1.97;100.00
11114;BME280;5610;52.154;9.198;2023-02-16T02:34:15;101534.13;;;1.95;100.00
11114;BME280;5610;52.154;9.198;2023-02-16T02:37:08;101534.19;;;1.92;100.00
11114;BME280;5610;52.154;9.198;2023-02-16T02:40:02;101522.03;;;1.82;100.00
11114;BME280;5610;52.154;9.198;2023-02-16T02:42:58;101528.88;;;1.98;100.00
11114;BME280;5610;52.154;9.198;2023-02-16T02:45:47;101522.56;;;2.10;100.00
11114;BME280;5610;52.154;9.198;2023-02-16T02:48:34;101526.94;;;2.11;100.00
11114;BME280;5610;52.154;9.198;2023-02-16T02:51:21;101525.19;;;2.10;100.00
11114;BME280;5610;52.154;9.198;2023-02-16T02:54:24;101528.72;;;2.09;100.00
11114;BME280;5610;52.154;9.198;2023-02-16T02:57:47;101534.03;;;2.03;100.00
11114;BME280;5610;52.154;9.198;2023-02-16T03:00:54;101535.00;;;1.96;100.00
11114;BME280;5610;52.154;9.198;2023-02-16T03:03:43;101540.34;;;1.91;100.00
11114;BME280;5610;52.154;9.198;2023-02-16T03:06:31;101535.16;;;1.85;100.00
11114;BME280;5610;52.154;9.198;2023-02-16T03:09:18;101529.97;;;1.77;100.00
11114;BME280;5610;52.154;9.198;2023-02-16T03:12:05;101524.81;;;1.67;100.00
11114;BME280;5610;52.154;9.198;2023-02-16T03:15:09;101520.50;;;1.64;100.00
11114;BME280;5610;52.154;9.198;2023-02-16T03:17:56;101517.91;;;1.58;100.00
11114;BME280;5610;52.154;9.198;2023-02-16T03:21:01;101515.34;;;1.53;100.00
11114;BME280;5610;52.154;9.198;2023-02-16T03:24:08;101520.59;;;1.52;100.00
11114;BME280;5610;52.154;9.198;2023-02-16T03:27:16;101532.91;;;1.48;100.00
11114;BME280;5610;52.154;9.198;2023-02-16T03:30:34;101532.97;;;1.41;100.00
11114;BME280;5610;52.154;9.198;2023-02-16T03:33:21;101531.28;;;1.36;100.00
11114;BME280;5610;52.154;9.198;2023-02-16T03:36:07;101533.94;;;1.30;100.00
11114;BME280;5610;52.154;9.198;2023-02-16T03:38:54;101535.69;;;1.34;100.00
11114;BME280;5610;52.154;9.198;2023-02-16T03:41:42;101537.34;;;1.42;100.00
11114;BME280;5610;52.154;9.198;2023-02-16T03:44:30;101539.91;;;1.48;100.00
11114;BME280;5610;52.154;9.198;2023-02-16T03:47:15;101543.34;;;1.54;100.00
11114;BME280;5610;52.154;9.198;2023-02-16T03:50:02;101541.47;;;1.65;100.00
11114;BME280;5610;52.154;9.198;2023-02-16T03:52:47;101531.00;;;1.61;100.00
11114;BME280;5610;52.154;9.198;2023-02-16T03:55:34;101518.75;;;1.63;100.00
11114;BME280;5610;52.154;9.198;2023-02-16T03:58:21;101533.56;;;1.69;100.00
11114;BME280;5610;52.154;9.198;2023-02-16T04:01:07;101540.41;;;1.82;100.00
11114;BME280;5610;52.154;9.198;2023-02-16T04:03:52;101536.00;;;1.85;100.00
11114;BME280;5610;52.154;9.198;2023-02-16T04:06:38;101531.03;;;1.62;100.00
11114;BME280;5610;52.154;9.198;2023-02-16T04:09:24;101539.63;;;1.77;100.00
11114;BME280;5610;52.154;9.198;2023-02-16T04:12:10;101540.50;;;1.77;100.00
11114;BME280;5610;52.154;9.198;2023-02-16T04:15:17;101540.50;;;1.77;100.00
11114;BME280;5610;52.154;9.198;2023-02-16T04:18:03;101530.00;;;1.74;100.00
11114;BME280;5610;52.154;9.198;2023-02-16T04:20:48;101529.22;;;1.66;100.00
11114;BME280;5610;52.154;9.198;2023-02-16T04:23:34;101524.97;;;1.56;100.00
11114;BME280;5610;52.154;9.198;2023-02-16T04:26:20;101516.34;;;1.42;100.00
11114;BME280;5610;52.154;9.198;2023-02-16T04:29:05;101513.63;;;1.51;100.00
11114;BME280;5610;52.154;9.198;2023-02-16T04:31:50;101506.47;;;1.65;100.00
11114;BME280;5610;52.154;9.198;2023-02-16T04:34:36;101502.06;;;1.67;100.00
11114;BME280;5610;52.154;9.198;2023-02-16T04:37:21;101500.38;;;1.63;100.00
11114;BME280;5610;52.154;9.198;2023-02-16T04:40:10;101494.25;;;1.59;100.00
11114;BME280;5610;52.154;9.198;2023-02-16T04:46:49;101490.81;;;1.56;100.00
11114;BME280;5610;52.154;9.198;2023-02-16T04:49:34;101495.09;;;1.63;100.00
11114;BME280;5610;52.154;9.198;2023-02-16T04:52:20;101493.31;;;1.65;100.00
11114;BME280;5610;52.154;9.198;2023-02-16T04:55:06;101501.22;;;1.63;100.00
11114;BME280;5610;52.154;9.198;2023-02-16T04:57:54;101502.06;;;1.65;100.00
11114;BME280;5610;52.154;9.198;2023-02-16T05:00:40;101512.63;;;1.61;100.00
11114;BME280;5610;52.154;9.198;2023-02-16T05:03:25;101506.53;;;1.57;100.00
11114;BME280;5610;52.154;9.198;2023-02-16T05:06:10;101507.44;;;1.53;100.00
11114;BME280;5610;52.154;9.198;2023-02-16T05:08:56;101508.38;;;1.51;100.00
11114;BME280;5610;52.154;9.198;2023-02-16T05:11:41;101513.63;;;1.51;100.00
11114;BME280;5610;52.154;9.198;2023-02-16T05:14:45;101500.47;;;1.52;100.00
11114;BME280;5610;52.154;9.198;2023-02-16T05:17:30;101504.88;;;1.50;100.00
11114;BME280;5610;52.154;9.198;2023-02-16T05:20:16;101500.44;;;1.54;100.00
11114;BME280;5610;52.154;9.198;2023-02-16T05:23:01;101499.56;;;1.56;100.00
11114;BME280;5610;52.154;9.198;2023-02-16T05:25:47;101500.44;;;1.57;100.00
11114;BME280;5610;52.154;9.198;2023-02-16T05:28:32;101503.84;;;1.62;100.00
11114;BME280;5610;52.154;9.198;2023-02-16T05:31:19;101510.03;;;1.58;100.00
11114;BME280;5610;52.154;9.198;2023-02-16T05:34:04;101510.81;;;1.66;100.00
11114;BME280;5610;52.154;9.198;2023-02-16T05:36:49;101511.63;;;1.73;100.00
11114;BME280;5610;52.154;9.198;2023-02-16T05:39:35;101514.31;;;1.70;100.00
11114;BME280;5610;52.154;9.198;2023-02-16T05:42:20;101511.66;;;1.71;100.00
11114;BME280;5610;52.154;9.198;2023-02-16T05:45:06;101508.97;;;1.74;100.00
11114;BME280;5610;52.154;9.198;2023-02-16T05:47:53;101514.22;;;1.74;100.00
11114;BME280;5610;52.154;9.198;2023-02-16T05:50:38;101500.19;;;1.75;100.00
11114;BME280;5610;52.154;9.198;2023-02-16T05:53:23;101509.91;;;1.70;100.00
11114;BME280;5610;52.154;9.198;2023-02-16T05:56:09;101511.59;;;1.74;100.00
11114;BME280;5610;52.154;9.198;2023-02-16T05:58:54;101514.22;;;1.77;100.00
11114;BME280;5610;52.154;9.198;2023-02-16T06:01:40;101508.09;;;1.74;100.00
11114;BME280;5610;52.154;9.198;2023-02-16T06:04:26;101527.38;;;1.74;100.00
11114;BME280;5610;52.154;9.198;2023-02-16T06:07:12;101517.72;;;1.75;100.00
11114;BME280;5610;52.154;9.198;2023-02-16T06:09:57;101510.00;;;1.59;100.00
11114;BME280;5610;52.154;9.198;2023-02-16T06:12:43;101516.91;;;1.68;100.00
11114;BME280;5610;52.154;9.198;2023-02-16T06:15:29;101525.69;;;1.67;100.00
11114;BME280;5610;52.154;9.198;2023-02-16T06:18:14;101499.63;;;1.47;100.00
11114;BME280;5610;52.154;9.198;2023-02-16T06:21:01;101529.25;;;1.63;100.00
11114;BME280;5610;52.154;9.198;2023-02-16T06:23:48;101523.97;;;1.64;100.00
11114;BME280;5610;52.154;9.198;2023-02-16T06:26:37;101535.28;;;1.73;100.00
11114;BME280;5610;52.154;9.198;2023-02-16T06:29:22;101545.75;;;1.77;100.00
11114;BME280;5610;52.154;9.198;2023-02-16T06:32:07;101543.09;;;1.79;100.00
11114;BME280;5610;52.154;9.198;2023-02-16T06:34:53;101549.25;;;1.78;100.00
11114;BME280;5610;52.154;9.198;2023-02-16T06:37:39;101544.78;;;1.83;100.00
11114;BME280;5610;52.154;9.198;2023-02-16T06:40:25;101536.88;;;1.86;100.00
11114;BME280;5610;52.154;9.198;2023-02-16T06:43:10;101533.38;;;1.87;100.00
11114;BME280;5610;52.154;9.198;2023-02-16T06:45:56;101529.00;;;1.83;100.00
11114;BME280;5610;52.154;9.198;2023-02-16T06:48:41;101537.75;;;1.86;100.00
11114;BME280;5610;52.154;9.198;2023-02-16T06:51:26;101530.72;;;1.88;100.00
11114;BME280;5610;52.154;9.198;2023-02-16T06:54:13;101542.88;;;1.96;100.00
11114;BME280;5610;52.154;9.198;2023-02-16T06:56:59;101544.59;;;2.00;100.00
11114;BME280;5610;52.154;9.198;2023-02-16T06:59:44;101546.28;;;2.07;100.00
11114;BME280;5610;52.154;9.198;2023-02-16T07:02:29;101547.09;;;2.12;100.00
11114;BME280;5610;52.154;9.198;2023-02-16T07:05:15;101550.50;;;2.20;100.00
11114;BME280;5610;52.154;9.198;2023-02-16T07:08:00;101544.28;;;2.24;100.00
11114;BME280;5610;52.154;9.198;2023-02-16T07:10:46;101545.19;;;2.23;100.00
11114;BME280;5610;52.154;9.198;2023-02-16T07:13:32;101540.78;;;2.27;100.00
11114;BME280;5610;52.154;9.198;2023-02-16T07:16:19;101542.44;;;2.34;100.00
11114;BME280;5610;52.154;9.198;2023-02-16T07:19:05;101546.69;;;2.42;100.00
11114;BME280;5610;52.154;9.198;2023-02-16T07:21:50;101536.22;;;2.38;100.00
11114;BME280;5610;52.154;9.198;2023-02-16T07:24:37;101538.84;;;2.38;100.00
11114;BME280;5610;52.154;9.198;2023-02-16T07:27:24;101538.81;;;2.42;100.00
11114;BME280;5610;52.154;9.198;2023-02-16T07:30:11;101541.38;;;2.45;100.00
11114;BME280;5610;52.154;9.198;2023-02-16T07:32:57;101553.41;;;2.63;100.00
11114;BME280;5610;52.154;9.198;2023-02-16T07:35:43;101551.50;;;2.73;100.00
11114;BME280;5610;52.154;9.198;2023-02-16T07:38:28;101554.97;;;2.78;100.00
11114;BME280;5610;52.154;9.198;2023-02-16T07:41:15;101553.88;;;2.91;100.00
11114;BME280;5610;52.154;9.198;2023-02-16T07:44:01;101559.88;;;2.99;100.00
11114;BME280;5610;52.154;9.198;2023-02-16T07:46:46;101550.81;;;3.19;100.00
11114;BME280;5610;52.154;9.198;2023-02-16T07:49:32;101551.50;;;3.28;100.00
11114;BME280;5610;52.154;9.198;2023-02-16T07:52:17;101552.44;;;3.26;100.00
11114;BME280;5610;52.154;9.198;2023-02-16T07:55:03;101545.09;;;3.43;100.00
11114;BME280;5610;52.154;9.198;2023-02-16T07:57:48;101546.69;;;3.52;100.00
11114;BME280;5610;52.154;9.198;2023-02-16T08:00:38;101545.47;;;3.71;100.00
11114;BME280;5610;52.154;9.198;2023-02-16T08:03:24;101545.53;;;3.68;100.00
11114;BME280;5610;52.154;9.198;2023-02-16T08:06:09;101545.56;;;4.11;100.00
11114;BME280;5610;52.154;9.198;2023-02-16T08:08:55;101527.81;;;4.20;100.00
11114;BME280;5610;52.154;9.198;2023-02-16T08:11:41;101535.31;;;4.39;100.00
11114;BME280;5610;52.154;9.198;2023-02-16T08:14:26;101545.13;;;4.73;100.00
11114;BME280;5610;52.154;9.198;2023-02-16T08:17:13;101542.97;;;4.89;100.00
11114;BME280;5610;52.154;9.198;2023-02-16T08:19:59;101538.00;;;5.12;100.00
11114;BME280;5610;52.154;9.198;2023-02-16T08:22:44;101522.63;;;4.92;100.00
11114;BME280;5610;52.154;9.198;2023-02-16T08:25:31;101520.50;;;5.08;100.00
11114;BME280;5610;52.154;9.198;2023-02-16T08:28:17;101501.59;;;4.89;100.00
11114;BME280;5610;52.154;9.198;2023-02-16T08:31:02;101498.66;;;5.36;100.00
11114;BME280;5610;52.154;9.198;2023-02-16T08:33:51;101508.75;;;5.54;100.00
11114;BME280;5610;52.154;9.198;2023-02-16T08:36:37;101505.34;;;5.49;100.00
11114;BME280;5610;52.154;9.198;2023-02-16T08:39:24;101504.25;;;5.56;100.00
11114;BME280;5610;52.154;9.198;2023-02-16T08:42:10;101511.69;;;5.42;100.00
11114;BME280;5610;52.154;9.198;2023-02-16T08:44:56;101511.59;;;5.79;100.00
11114;BME280;5610;52.154;9.198;2023-02-16T08:47:41;101512.53;;;5.76;100.00
11114;BME280;5610;52.154;9.198;2023-02-16T08:50:28;101516.63;;;5.88;100.00
11114;BME280;5610;52.154;9.198;2023-02-16T08:53:14;101511.59;;;5.79;100.00
11114;BME280;5610;52.154;9.198;2023-02-16T08:56:00;101518.34;;;5.89;100.00
11114;BME280;5610;52.154;9.198;2023-02-16T08:58:46;101520.06;;;5.92;100.00
11114;BME280;5610;52.154;9.198;2023-02-16T09:01:32;101506.84;;;5.90;100.00
11114;BME280;5610;52.154;9.198;2023-02-16T09:04:18;101509.88;;;6.09;100.00
11114;BME280;5610;52.154;9.198;2023-02-16T09:07:05;101507.38;;;5.72;100.00
11114;BME280;5610;52.154;9.198;2023-02-16T09:09:51;101508.31;;;6.02;100.00
11114;BME280;5610;52.154;9.198;2023-02-16T09:12:37;101510.00;;;6.34;100.00
11114;BME280;5610;52.154;9.198;2023-02-16T09:15:22;101512.72;;;6.60;100.00
11114;BME280;5610;52.154;9.198;2023-02-16T09:18:08;101502.63;;;6.73;100.00
11114;BME280;5610;52.154;9.198;2023-02-16T09:20:53;101511.47;;;7.00;100.00
11114;BME280;5610;52.154;9.198;2023-02-16T09:23:41;101514.47;;;7.16;100.00
11114;BME280;5610;52.154;9.198;2023-02-16T09:26:30;101517.44;;;7.07;100.00
11114;BME280;5610;52.154;9.198;2023-02-16T09:29:15;101513.53;;;7.17;100.00
11114;BME280;5610;52.154;9.198;2023-02-16T09:32:01;101517.78;;;7.23;100.00
11114;BME280;5610;52.154;9.198;2023-02-16T09:34:46;101524.31;;;7.12;100.00
11114;BME280;5610;52.154;9.198;2023-02-16T09:37:33;101522.78;;;7.05;100.00
11114;BME280;5610;52.154;9.198;2023-02-16T09:40:20;101509.81;;;6.70;100.00
11114;BME280;5610;52.154;9.198;2023-02-16T09:43:07;101519.72;;;6.33;100.00
11114;BME280;5610;52.154;9.198;2023-02-16T09:45:57;101516.13;;;6.36;100.00
11114;BME280;5610;52.154;9.198;2023-02-16T09:48:45;101516.41;;;6.84;100.00
11114;BME280;5610;52.154;9.198;2023-02-16T09:51:35;101519.28;;;7.03;100.00
11114;BME280;5610;52.154;9.198;2023-02-16T09:54:32;101504.25;;;7.30;100.00
11114;BME280;5610;52.154;9.198;2023-02-16T09:57:35;101508.34;;;7.40;100.00
11114;BME280;5610;52.154;9.198;2023-02-16T10:00:32;101495.00;;;7.67;100.00
11114;BME280;5610;52.154;9.198;2023-02-16T10:03:33;101491.19;;;7.99;100.00
11114;BME280;5610;52.154;9.198;2023-02-16T10:06:47;101494.19;;;8.13;100.00
11114;BME280;5610;52.154;9.198;2023-02-16T10:09:36;101494.97;;;8.40;100.00
11114;BME280;5610;52.154;9.198;2023-02-16T10:12:26;101494.13;;;8.38;100.00
11114;BME280;5610;52.154;9.198;2023-02-16T10:15:16;101498.75;;;8.78;100.00
11114;BME280;5610;52.154;9.198;2023-02-16T10:18:06;101508.00;;;9.12;100.00
11114;BME280;5610;52.154;9.198;2023-02-16T10:21:01;101500.50;;;9.42;100.00
11114;BME280;5610;52.154;9.198;2023-02-16T10:23:51;101499.72;;;9.60;100.00
11114;BME280;5610;52.154;9.198;2023-02-16T10:26:42;101502.31;;;9.62;100.00
11114;BME280;5610;52.154;9.198;2023-02-16T10:29:30;101508.41;;;9.64;100.00
11114;BME280;5610;52.154;9.198;2023-02-16T10:32:24;101516.81;;;9.75;100.00
11114;BME280;5610;52.154;9.198;2023-02-16T10:35:14;101520.44;;;9.93;100.00
11114;BME280;5610;52.154;9.198;2023-02-16T10:38:04;101503.63;;;10.11;100.00
11114;BME280;5610;52.154;9.198;2023-02-16T10:40:56;101509.38;;;10.23;100.00
11114;BME280;5610;52.154;9.198;2023-02-16T10:43:46;101496.88;;;10.43;100.00
11114;BME280;5610;52.154;9.198;2023-02-16T10:46:39;101487.63;;;10.51;100.00
11114;BME280;5610;52.154;9.198;2023-02-16T10:49:25;101487.38;;;10.74;100.00
11114;BME280;5610;52.154;9.198;2023-02-16T10:52:13;101488.13;;;11.12;96.76
11114;BME280;5610;52.154;9.198;2023-02-16T10:54:58;101493.94;;;11.72;92.43
11114;BME280;5610;52.154;9.198;2023-02-16T10:57:50;101493.72;;;13.05;84.02
11114;BME280;5610;52.154;9.198;2023-02-16T11:00:47;101492.72;;;14.80;71.20
11114;BME280;5610;52.154;9.198;2023-02-16T11:03:43;101484.94;;;14.48;66.66
11114;BME280;5610;52.154;9.198;2023-02-16T11:06:29;101479.94;;;13.57;68.27
11114;BME280;5610;52.154;9.198;2023-02-16T11:09:14;101488.84;;;12.65;72.44
11114;BME280;5610;52.154;9.198;2023-02-16T11:12:00;101486.75;;;12.23;77.18
11114;BME280;5610;52.154;9.198;2023-02-16T11:14:48;101479.81;;;12.03;80.94
11114;BME280;5610;52.154;9.198;2023-02-16T11:17:47;101475.53;;;12.01;82.17
11114;BME280;5610;52.154;9.198;2023-02-16T11:20:53;101480.81;;;12.18;81.63
11114;BME280;5610;52.154;9.198;2023-02-16T11:23:39;101472.53;;;12.23;80.28
11114;BME280;5610;52.154;9.198;2023-02-16T11:26:25;101478.97;;;12.03;81.89
11114;BME280;5610;52.154;9.198;2023-02-16T11:29:18;101471.78;;;11.88;82.79
11114;BME280;5610;52.154;9.198;2023-02-16T11:32:05;101464.72;;;11.87;84.01
11114;BME280;5610;52.154;9.198;2023-02-16T11:34:51;101462.81;;;12.22;84.23
11114;BME280;5610;52.154;9.198;2023-02-16T11:37:39;101459.53;;;12.64;79.80
11114;BME280;5610;52.154;9.198;2023-02-16T11:40:26;101454.75;;;13.15;74.21
11114;BME280;5610;52.154;9.198;2023-02-16T11:43:16;101452.22;;;13.58;68.04
11114;BME280;5610;52.154;9.198;2023-02-16T11:46:04;101438.59;;;14.32;63.59
11114;BME280;5610;52.154;9.198;2023-02-16T11:48:51;101442.41;;;16.86;56.19
11114;BME280;5610;52.154;9.198;2023-02-16T11:51:36;101435.94;;;18.80;50.78
11114;BME280;5610;52.154;9.198;2023-02-16T11:54:23;101441.44;;;18.02;50.50
11114;BME280;5610;52.154;9.198;2023-02-16T11:57:11;101444.91;;;16.39;53.35
11114;BME280;5610;52.154;9.198;2023-02-16T11:59:58;101444.56;;;15.31;56.10
11114;BME280;5610;52.154;9.198;2023-02-16T12:03:05;101445.50;;;14.22;59.81
11114;BME280;5610;52.154;9.198;2023-02-16T12:06:06;101448.03;;;13.68;61.92
11114;BME280;5610;52.154;9.198;2023-02-16T12:09:06;101450.28;;;13.15;65.33
11114;BME280;5610;52.154;9.198;2023-02-16T12:11:59;101438.59;;;13.16;67.00
11114;BME280;5610;52.154;9.198;2023-02-16T12:14:57;101426.78;;;13.65;66.42
11114;BME280;5610;52.154;9.198;2023-02-16T12:17:59;101425.16;;;16.28;57.91
11114;BME280;5610;52.154;9.198;2023-02-16T12:20:49;101413.38;;;19.02;49.83
11114;BME280;5610;52.154;9.198;2023-02-16T12:23:40;101410.44;;;19.47;47.52
11114;BME280;5610;52.154;9.198;2023-02-16T12:26:38;101410.97;;;18.88;48.34
11114;BME280;5610;52.154;9.198;2023-02-16T12:29:38;101404.28;;;18.28;49.81
11114;BME280;5610;52.154;9.198;2023-02-16T12:32:46;101406.56;;;17.32;51.83
11114;BME280;5610;52.154;9.198;2023-02-16T12:35:47;101417.28;;;16.37;54.23
11114;BME280;5610;52.154;9.198;2023-02-16T12:38:44;101408.25;;;15.51;56.42
11114;BME280;5610;52.154;9.198;2023-02-16T12:41:42;101417.34;;;14.70;58.73
11114;BME280;5610;52.154;9.198;2023-02-16T12:44:35;101405.59;;;14.17;61.28
11114;BME280;5610;52.154;9.198;2023-02-16T12:47:29;101397.69;;;13.73;62.96
11114;BME280;5610;52.154;9.198;2023-02-16T12:50:19;101399.41;;;13.88;64.92
11114;BME280;5610;52.154;9.198;2023-02-16T12:53:07;101388.66;;;14.17;65.05
11114;BME280;5610;52.154;9.198;2023-02-16T12:55:59;101388.66;;;14.44;63.48
11114;BME280;5610;52.154;9.198;2023-02-16T12:58:48;101379.59;;;14.73;62.58
11114;BME280;5610;52.154;9.198;2023-02-16T13:01:41;101390.06;;;14.22;63.61
11114;BME280;5610;52.154;9.198;2023-02-16T13:04:36;101380.28;;;15.02;61.94
11114;BME280;5610;52.154;9.198;2023-02-16T13:07:26;101371.38;;;15.15;60.61
11114;BME280;5610;52.154;9.198;2023-02-16T13:10:17;101374.75;;;15.31;60.48
11114;BME280;5610;52.154;9.198;2023-02-16T13:13:07;101377.09;;;15.86;58.47
11114;BME280;5610;52.154;9.198;2023-02-16T13:16:02;101374.56;;;16.09;58.46
11114;BME280;5610;52.154;9.198;2023-02-16T13:18:54;101369.94;;;16.59;56.40
11114;BME280;5610;52.154;9.198;2023-02-16T13:25:00;101368.28;;;15.21;61.24
11114;BME280;5610;52.154;9.198;2023-02-16T13:27:55;101357.38;;;14.84;63.05
11114;BME280;5610;52.154;9.198;2023-02-16T13:30:56;101355.47;;;14.46;64.29
11114;BME280;5610;52.154;9.198;2023-02-16T13:33:59;101352.06;;;13.89;65.70
11114;BME280;5610;52.154;9.198;2023-02-16T13:36:58;101350.06;;;13.78;69.56
11114;BME280;5610;52.154;9.198;2023-02-16T13:40:03;101344.50;;;13.53;69.91
11114;BME280;5610;52.154;9.198;2023-02-16T13:43:12;101345.25;;;13.12;72.25
11114;BME280;5610;52.154;9.198;2023-02-16T13:46:03;101346.41;;;12.78;74.38
11114;BME280;5610;52.154;9.198;2023-02-16T13:48:52;101335.69;;;12.63;77.98
11114;BME280;5610;52.154;9.198;2023-02-16T13:51:42;101332.44;;;12.43;79.31
11114;BME280;5610;52.154;9.198;2023-02-16T13:54:30;101328.28;;;12.53;75.97
11114;BME280;5610;52.154;9.198;2023-02-16T14:00:46;101299.75;;;12.98;79.75
11114;BME280;5610;52.154;9.198;2023-02-16T14:03:34;101293.34;;;13.14;77.89
11114;BME280;5610;52.154;9.198;2023-02-16T14:06:32;101299.84;;;13.10;79.42
11114;BME280;5610;52.154;9.198;2023-02-16T14:09:45;101291.69;;;12.69;74.51
11114;BME280;5610;52.154;9.198;2023-02-16T14:12:36;101290.34;;;12.76;74.04
11114;BME280;5610;52.154;9.198;2023-02-16T14:15:22;101287.72;;;12.60;74.94
11114;BME280;5610;52.154;9.198;2023-02-16T14:18:19;101285.56;;;12.37;76.01
11114;BME280;5610;52.154;9.198;2023-02-16T14:21:14;101273.41;;;12.31;76.02
11114;BME280;5610;52.154;9.198;2023-02-16T14:24:03;101269.75;;;12.02;76.87
11114;BME280;5610;52.154;9.198;2023-02-16T14:26:55;101258.75;;;11.93;78.19
11114;BME280;5610;52.154;9.198;2023-02-16T14:29:51;101253.03;;;12.15;78.34
11114;BME280;5610;52.154;9.198;2023-02-16T14:32:44;101258.16;;;12.33;79.17
11114;BME280;5610;52.154;9.198;2023-02-16T14:35:34;101261.31;;;12.70;77.51
11114;BME280;5610;52.154;9.198;2023-02-16T14:38:23;101257.69;;;13.00;75.42
11114;BME280;5610;52.154;9.198;2023-02-16T14:41:23;101261.88;;;12.89;72.10
11114;BME280;5610;52.154;9.198;2023-02-16T14:44:24;101264.09;;;12.69;73.24
11114;BME280;5610;52.154;9.198;2023-02-16T14:47:17;101263.78;;;12.73;73.92
11114;BME280;5610;52.154;9.198;2023-02-16T14:50:16;101262.53;;;12.64;78.98
11114;BME280;5610;52.154;9.198;2023-02-16T14:53:21;101282.72;;;12.54;80.15
11114;BME280;5610;52.154;9.198;2023-02-16T14:56:35;101289.22;;;12.04;86.14
11114;BME280;5610;52.154;9.198;2023-02-16T14:59:28;101291.97;;;12.03;86.81
11114;BME280;5610;52.154;9.198;2023-02-16T15:02:29;101284.75;;;11.89;90.11
11114;BME280;5610;52.154;9.198;2023-02-16T15:05:17;101276.91;;;11.70;92.54
11114;BME280;5610;52.154;9.198;2023-02-16T15:08:08;101281.78;;;11.62;94.50
11114;BME280;5610;52.154;9.198;2023-02-16T15:10:53;101275.44;;;11.49;95.59